sensor_id;sensor_type;location;lat;lon;timestamp;pressure;altitude;pressure_sealevel;temperature;humidity
11444;BME280;5778;47.856;12.154;2022-10-12T00:01:23;96928.06;;;14.06;100.00
11444;BME280;5778;47.856;12.154;2022-10-12T00:06:36;96935.00;;;14.07;100.00
11444;BME280;5778;47.856;12.154;2022-10-12T00:09:03;96929.66;;;14.07;100.00
11444;BME280;5778;47.856;12.154;2022-10-12T00:11:30;96930.16;;;14.04;100.00
11444;BME280;5778;47.856;12.154;2022-10-12T00:13:58;96929.09;;;14.05;100.00
11444;BME280;5778;47.856;12.154;2022-10-12T00:16:30;96934.19;;;14.06;100.00
11444;BME280;5778;47.856;12.154;2022-10-12T00:18:59;96931.25;;;14.08;100.00
11444;BME280;5778;47.856;12.154;2022-10-12T00:22:05;96937.16;;;14.10;100.00
11444;BME280;5778;47.856;12.154;2022-10-12T00:24:32;96936.91;;;14.11;100.00
11444;BME280;5778;47.856;12.154;2022-10-12T00:27:03;96938.50;;;14.12;100.00
11444;BME280;5778;47.856;12.154;2022-10-12T00:29:31;96936.84;;;14.01;100.00
11444;BME280;5778;47.856;12.154;2022-10-12T00:31:58;96933.91;;;14.03;100.00
11444;BME280;5778;47.856;12.154;2022-10-12T00:34:25;96929.88;;;14.00;100.00
11444;BME280;5778;47.856;12.154;2022-10-12T00:36:55;96933.84;;;13.93;100.00
11444;BME280;5778;47.856;12.154;2022-10-12T00:39:24;96931.13;;;13.88;100.00
11444;BME280;5778;47.856;12.154;2022-10-12T00:41:51;96930.06;;;13.84;100.00
11444;BME280;5778;47.856;12.154;2022-10-12T00:44:36;96931.63;;;13.80;100.00
11444;BME280;5778;47.856;12.154;2022-10-12T00:50:41;96930.34;;;13.87;100.00
11444;BME280;5778;47.856;12.154;2022-10-12T00:53:10;96926.31;;;13.85;100.00
11444;BME280;5778;47.856;12.154;2022-10-12T00:55:44;96933.25;;;13.86;100.00
11444;BME280;5778;47.856;12.154;2022-10-12T00:58:12;96928.47;;;13.88;100.00
11444;BME280;5778;47.856;12.154;2022-10-12T01:00:41;96920.97;;;13.85;100.00
11444;BME280;5778;47.856;12.154;2022-10-12T01:03:09;96935.91;;;13.81;100.00
11444;BME280;5778;47.856;12.154;2022-10-12T01:05:40;96936.41;;;13.78;100.00
11444;BME280;5778;47.856;12.154;2022-10-12T01:08:07;96925.75;;;13.83;100.00
11444;BME280;5778;47.856;12.154;2022-10-12T01:10:34;96929.25;;;13.83;100.00
11444;BME280;5778;47.856;12.154;2022-10-12T01:13:03;96930.31;;;13.82;100.00
11444;BME280;5778;47.856;12.154;2022-10-12T01:15:32;96926.50;;;13.73;100.00
11444;BME280;5778;47.856;12.154;2022-10-12T01:18:06;96930.81;;;13.79;100.00
11444;BME280;5778;47.856;12.154;2022-10-12T01:21:04;96923.59;;;13.80;100.00
11444;BME280;5778;47.856;12.154;2022-10-12T01:24:02;96929.53;;;13.87;100.00
11444;BME280;5778;47.856;12.154;2022-10-12T01:32:16;96935.31;;;13.74;100.00
11444;BME280;5778;47.856;12.154;2022-10-12T01:34:52;96935.63;;;13.77;100.00
11444;BME280;5778;47.856;12.154;2022-10-12T01:37:36;96930.44;;;13.66;100.00
11444;BME280;5778;47.856;12.154;2022-10-12T01:40:13;96942.72;;;13.62;100.00
11444;BME280;5778;47.856;12.154;2022-10-12T01:42:43;96944.00;;;13.54;100.00
11444;BME280;5778;47.856;12.154;2022-10-12T01:45:12;96931.50;;;13.65;100.00
11444;BME280;5778;47.856;12.154;2022-10-12T01:47:44;96941.94;;;13.66;100.00
11444;BME280;5778;47.856;12.154;2022-10-12T01:50:27;96938.47;;;13.66;100.00
11444;BME280;5778;47.856;12.154;2022-10-12T01:53:00;96945.91;;;13.59;100.00
11444;BME280;5778;47.856;12.154;2022-10-12T01:55:36;96939.47;;;13.60;100.00
11444;BME280;5778;47.856;12.154;2022-10-12T01:58:19;96940.00;;;13.57;100.00
11444;BME280;5778;47.856;12.154;2022-10-12T02:00:55;96934.66;;;13.57;100.00
11444;BME280;5778;47.856;12.154;2022-10-12T02:03:33;96933.81;;;13.51;100.00
11444;BME280;5778;47.856;12.154;2022-10-12T02:06:09;96934.06;;;13.50;100.00
11444;BME280;5778;47.856;12.154;2022-10-12T02:08:40;96937.25;;;13.47;100.00
11444;BME280;5778;47.856;12.154;2022-10-12T02:11:14;96935.91;;;13.44;100.00
11444;BME280;5778;47.856;12.154;2022-10-12T02:13:44;96932.63;;;13.37;100.00
11444;BME280;5778;47.856;12.154;2022-10-12T02:16:14;96938.53;;;13.39;100.00
11444;BME280;5778;47.856;12.154;2022-10-12T02:18:47;96939.28;;;13.35;100.00
11444;BME280;5778;47.856;12.154;2022-10-12T02:21:28;96944.59;;;13.30;100.00
11444;BME280;5778;47.856;12.154;2022-10-12T02:23:58;96943.53;;;13.31;100.00
11444;BME280;5778;47.856;12.154;2022-10-12T02:29:41;96937.31;;;13.25;100.00
11444;BME280;5778;47.856;12.154;2022-10-12T02:32:16;96934.34;;;13.22;100.00
11444;BME280;5778;47.856;12.154;2022-10-12T02:34:50;96931.69;;;13.22;100.00
11444;BME280;5778;47.856;12.154;2022-10-12T02:37:29;96934.31;;;13.17;100.00
11444;BME280;5778;47.856;12.154;2022-10-12T02:40:02;96936.91;;;13.12;100.00
11444;BME280;5778;47.856;12.154;2022-10-12T02:42:33;96928.06;;;13.06;100.00
11444;BME280;5778;47.856;12.154;2022-10-12T02:45:04;96935.78;;;13.03;100.00
11444;BME280;5778;47.856;12.154;2022-10-12T02:50:56;96926.75;;;13.09;100.00
11444;BME280;5778;47.856;12.154;2022-10-12T02:53:26;96929.19;;;13.10;100.00
11444;BME280;5778;47.856;12.154;2022-10-12T02:56:00;96921.66;;;13.07;100.00
11444;BME280;5778;47.856;12.154;2022-10-12T02:58:28;96925.16;;;13.08;100.00
11444;BME280;5778;47.856;12.154;2022-10-12T03:00:55;96922.53;;;13.13;100.00
11444;BME280;5778;47.856;12.154;2022-10-12T03:03:22;96921.47;;;13.14;100.00
11444;BME280;5778;47.856;12.154;2022-10-12T03:05:56;96919.88;;;13.18;100.00
11444;BME280;5778;47.856;12.154;2022-10-12T03:08:23;96928.41;;;13.15;100.00
11444;BME280;5778;47.856;12.154;2022-10-12T03:10:50;96919.34;;;13.16;100.00
11444;BME280;5778;47.856;12.154;2022-10-12T03:13:17;96928.13;;;13.11;100.00
11444;BME280;5778;47.856;12.154;2022-10-12T03:15:45;96919.25;;;13.06;100.00
11444;BME280;5778;47.856;12.154;2022-10-12T03:18:12;96927.78;;;13.03;100.00
11444;BME280;5778;47.856;12.154;2022-10-12T03:20:46;96932.84;;;13.04;100.00
11444;BME280;5778;47.856;12.154;2022-10-12T03:23:15;96925.59;;;13.00;100.00
11444;BME280;5778;47.856;12.154;2022-10-12T03:26:12;96932.53;;;13.01;100.00
11444;BME280;5778;47.856;12.154;2022-10-12T03:28:39;96929.38;;;13.04;100.00
11444;BME280;5778;47.856;12.154;2022-10-12T03:31:06;96937.34;;;12.99;100.00
11444;BME280;5778;47.856;12.154;2022-10-12T03:33:33;96931.66;;;12.95;100.00
11444;BME280;5778;47.856;12.154;2022-10-12T03:36:08;96939.38;;;12.92;100.00
11444;BME280;5778;47.856;12.154;2022-10-12T03:38:37;96934.59;;;12.94;100.00
11444;BME280;5778;47.856;12.154;2022-10-12T03:41:04;96934.41;;;13.00;100.00
11444;BME280;5778;47.856;12.154;2022-10-12T03:43:32;96939.53;;;13.02;100.00
11444;BME280;5778;47.856;12.154;2022-10-12T03:45:59;96935.16;;;12.96;100.00
11444;BME280;5778;47.856;12.154;2022-10-12T03:48:26;96928.84;;;13.02;100.00
11444;BME280;5778;47.856;12.154;2022-10-12T03:51:07;96933.13;;;13.03;100.00
11444;BME280;5778;47.856;12.154;2022-10-12T03:53:34;96934.41;;;13.00;100.00
11444;BME280;5778;47.856;12.154;2022-10-12T03:56:21;96939.53;;;13.07;100.00
11444;BME280;5778;47.856;12.154;2022-10-12T03:58:48;96945.69;;;13.07;100.00
11444;BME280;5778;47.856;12.154;2022-10-12T04:01:15;96942.25;;;13.12;100.00
11444;BME280;5778;47.856;12.154;2022-10-12T04:03:42;96938.03;;;13.16;100.00
11444;BME280;5778;47.856;12.154;2022-10-12T04:06:09;96934.56;;;13.15;100.00
11444;BME280;5778;47.856;12.154;2022-10-12T04:08:36;96930.56;;;13.18;100.00
11444;BME280;5778;47.856;12.154;2022-10-12T04:11:03;96927.34;;;13.16;100.00
11444;BME280;5778;47.856;12.154;2022-10-12T04:13:32;96935.41;;;13.21;100.00
11444;BME280;5778;47.856;12.154;2022-10-12T04:16:03;96926.88;;;13.19;100.00
11444;BME280;5778;47.856;12.154;2022-10-12T04:18:30;96926.63;;;13.25;100.00
11444;BME280;5778;47.856;12.154;2022-10-12T04:24:15;96931.22;;;13.30;100.00
11444;BME280;5778;47.856;12.154;2022-10-12T04:26:51;96933.91;;;13.30;100.00
11444;BME280;5778;47.856;12.154;2022-10-12T04:29:20;96939.78;;;13.32;100.00
11444;BME280;5778;47.856;12.154;2022-10-12T04:31:47;96934.97;;;13.34;100.00
11444;BME280;5778;47.856;12.154;2022-10-12T04:34:14;96936.63;;;13.35;100.00
11444;BME280;5778;47.856;12.154;2022-10-12T04:37:04;96936.91;;;13.38;100.00
11444;BME280;5778;47.856;12.154;2022-10-12T04:39:31;96938.53;;;13.39;100.00
11444;BME280;5778;47.856;12.154;2022-10-12T04:41:59;96939.34;;;13.40;100.00
11444;BME280;5778;47.856;12.154;2022-10-12T04:44:28;96937.69;;;13.39;100.00
11444;BME280;5778;47.856;12.154;2022-10-12T04:47:09;96936.66;;;13.40;100.00
11444;BME280;5778;47.856;12.154;2022-10-12T04:49:37;96943.56;;;13.36;100.00
11444;BME280;5778;47.856;12.154;2022-10-12T04:52:05;96937.69;;;13.39;100.00
11444;BME280;5778;47.856;12.154;2022-10-12T04:54:32;96939.88;;;13.42;100.00
11444;BME280;5778;47.856;12.154;2022-10-12T04:57:26;96942.03;;;13.45;100.00
11444;BME280;5778;47.856;12.154;2022-10-12T04:59:55;96944.69;;;13.40;100.00
11444;BME280;5778;47.856;12.154;2022-10-12T05:02:22;96944.88;;;13.33;100.00
11444;BME280;5778;47.856;12.154;2022-10-12T05:04:49;96941.38;;;13.33;100.00
11444;BME280;5778;47.856;12.154;2022-10-12T05:07:17;96942.94;;;13.29;100.00
11444;BME280;5778;47.856;12.154;2022-10-12T05:09:44;96950.41;;;13.27;100.00
11444;BME280;5778;47.856;12.154;2022-10-12T05:12:11;96945.56;;;13.19;100.00
11444;BME280;5778;47.856;12.154;2022-10-12T05:14:38;96954.59;;;13.18;100.00
11444;BME280;5778;47.856;12.154;2022-10-12T05:17:22;96951.59;;;13.09;100.00
11444;BME280;5778;47.856;12.154;2022-10-12T05:19:49;96958.56;;;13.10;100.00
11444;BME280;5778;47.856;12.154;2022-10-12T05:22:25;96956.69;;;13.11;100.00
11444;BME280;5778;47.856;12.154;2022-10-12T05:24:52;96954.53;;;13.08;100.00
11444;BME280;5778;47.856;12.154;2022-10-12T05:27:22;96947.06;;;13.10;100.00
11444;BME280;5778;47.856;12.154;2022-10-12T05:29:50;96955.06;;;13.10;100.00
11444;BME280;5778;47.856;12.154;2022-10-12T05:32:17;96959.09;;;13.12;100.00
11444;BME280;5778;47.856;12.154;2022-10-12T05:34:45;96953.75;;;13.12;100.00
11444;BME280;5778;47.856;12.154;2022-10-12T05:37:29;96951.16;;;13.17;100.00
11444;BME280;5778;47.856;12.154;2022-10-12T05:39:56;96959.41;;;13.16;100.00
11444;BME280;5778;47.856;12.154;2022-10-12T05:42:24;96955.06;;;13.10;100.00
11444;BME280;5778;47.856;12.154;2022-10-12T05:44:51;96966.25;;;13.07;100.00
11444;BME280;5778;47.856;12.154;2022-10-12T05:47:48;96958.22;;;13.07;100.00
11444;BME280;5778;47.856;12.154;2022-10-12T05:50:16;96957.94;;;13.03;100.00
11444;BME280;5778;47.856;12.154;2022-10-12T05:52:43;96965.75;;;13.10;100.00
11444;BME280;5778;47.856;12.154;2022-10-12T05:55:10;96969.97;;;13.06;100.00
11444;BME280;5778;47.856;12.154;2022-10-12T06:00:07;96974.53;;;13.05;100.00
11444;BME280;5778;47.856;12.154;2022-10-12T06:02:37;96974.81;;;13.09;100.00
11444;BME280;5778;47.856;12.154;2022-10-12T06:05:05;96976.69;;;13.08;100.00
11444;BME280;5778;47.856;12.154;2022-10-12T06:07:42;96980.16;;;13.09;100.00
11444;BME280;5778;47.856;12.154;2022-10-12T06:10:10;96983.44;;;13.16;100.00
11444;BME280;5778;47.856;12.154;2022-10-12T06:12:37;96979.91;;;13.10;100.00
11444;BME280;5778;47.856;12.154;2022-10-12T06:15:05;96979.59;;;13.07;100.00
11444;BME280;5778;47.856;12.154;2022-10-12T06:17:51;96985.56;;;13.14;100.00
11444;BME280;5778;47.856;12.154;2022-10-12T06:20:22;96977.59;;;13.19;100.00
11444;BME280;5778;47.856;12.154;2022-10-12T06:22:51;96974.34;;;13.17;100.00
11444;BME280;5778;47.856;12.154;2022-10-12T06:25:18;96981.88;;;13.20;100.00
11444;BME280;5778;47.856;12.154;2022-10-12T06:31:03;96985.19;;;13.32;100.00
11444;BME280;5778;47.856;12.154;2022-10-12T06:33:30;96978.31;;;13.36;100.00
11444;BME280;5778;47.856;12.154;2022-10-12T06:36:05;96980.44;;;13.39;100.00
11444;BME280;5778;47.856;12.154;2022-10-12T06:38:33;96985.31;;;13.42;100.00
11444;BME280;5778;47.856;12.154;2022-10-12T06:41:00;96984.78;;;13.45;100.00
11444;BME280;5778;47.856;12.154;2022-10-12T06:43:27;96984.47;;;13.41;100.00
11444;BME280;5778;47.856;12.154;2022-10-12T06:49:17;96985.78;;;13.39;100.00
11444;BME280;5778;47.856;12.154;2022-10-12T06:51:49;96986.31;;;13.36;100.00
11444;BME280;5778;47.856;12.154;2022-10-12T06:54:18;96994.38;;;13.41;100.00
11444;BME280;5778;47.856;12.154;2022-10-12T06:56:59;96992.25;;;13.43;100.00
11444;BME280;5778;47.856;12.154;2022-10-12T06:59:26;96991.72;;;13.41;100.00
11444;BME280;5778;47.856;12.154;2022-10-12T07:01:53;96988.75;;;13.42;100.00
11444;BME280;5778;47.856;12.154;2022-10-12T07:04:20;96991.13;;;13.39;100.00
11444;BME280;5778;47.856;12.154;2022-10-12T07:06:58;96990.44;;;13.48;100.00
11444;BME280;5778;47.856;12.154;2022-10-12T07:09:27;96992.38;;;13.58;100.00
11444;BME280;5778;47.856;12.154;2022-10-12T07:11:55;96991.63;;;13.62;100.00
11444;BME280;5778;47.856;12.154;2022-10-12T07:14:22;96992.78;;;13.71;100.00
11444;BME280;5778;47.856;12.154;2022-10-12T07:17:14;96987.72;;;13.75;100.00
11444;BME280;5778;47.856;12.154;2022-10-12T07:19:41;96992.03;;;13.81;100.00
11444;BME280;5778;47.856;12.154;2022-10-12T07:22:18;96991.00;;;13.87;100.00
11444;BME280;5778;47.856;12.154;2022-10-12T07:24:48;96992.09;;;13.86;100.00
11444;BME280;5778;47.856;12.154;2022-10-12T07:27:21;96993.94;;;13.85;100.00
11444;BME280;5778;47.856;12.154;2022-10-12T07:29:48;96996.31;;;13.82;100.00
11444;BME280;5778;47.856;12.154;2022-10-12T07:32:15;96991.53;;;13.84;100.00
11444;BME280;5778;47.856;12.154;2022-10-12T07:34:42;96988.88;;;13.84;100.00
11444;BME280;5778;47.856;12.154;2022-10-12T07:37:20;96991.31;;;13.90;100.00
11444;BME280;5778;47.856;12.154;2022-10-12T07:39:49;96988.22;;;14.03;100.00
11444;BME280;5778;47.856;12.154;2022-10-12T07:42:21;96989.34;;;14.17;100.00
11444;BME280;5778;47.856;12.154;2022-10-12T07:44:48;96983.88;;;14.34;100.00
11444;BME280;5778;47.856;12.154;2022-10-12T07:47:37;96986.94;;;14.16;100.00
11444;BME280;5778;47.856;12.154;2022-10-12T07:50:34;96998.41;;;14.11;100.00
11444;BME280;5778;47.856;12.154;2022-10-12T07:53:01;97009.91;;;14.07;100.00
11444;BME280;5778;47.856;12.154;2022-10-12T07:55:30;97009.31;;;14.00;100.00
11444;BME280;5778;47.856;12.154;2022-10-12T07:58:05;97012.00;;;14.05;100.00
11444;BME280;5778;47.856;12.154;2022-10-12T08:00:32;97012.34;;;14.13;100.00
11444;BME280;5778;47.856;12.154;2022-10-12T08:02:59;97010.47;;;14.14;100.00
11444;BME280;5778;47.856;12.154;2022-10-12T08:05:26;97006.53;;;14.21;100.00
11444;BME280;5778;47.856;12.154;2022-10-12T08:07:54;97009.47;;;14.20;100.00
11444;BME280;5778;47.856;12.154;2022-10-12T08:10:21;97010.44;;;14.09;100.00
11444;BME280;5778;47.856;12.154;2022-10-12T08:12:49;97016.78;;;13.98;100.00
11444;BME280;5778;47.856;12.154;2022-10-12T08:15:17;97012.00;;;14.05;100.00
11444;BME280;5778;47.856;12.154;2022-10-12T08:17:54;97010.09;;;14.00;100.00
11444;BME280;5778;47.856;12.154;2022-10-12T08:20:21;97019.28;;;14.09;100.00
11444;BME280;5778;47.856;12.154;2022-10-12T08:22:48;97013.03;;;13.99;100.00
11444;BME280;5778;47.856;12.154;2022-10-12T08:25:15;97015.00;;;14.08;100.00
11444;BME280;5778;47.856;12.154;2022-10-12T08:27:51;97006.22;;;14.18;100.00
11444;BME280;5778;47.856;12.154;2022-10-12T08:30:17;97012.63;;;14.17;100.00
11444;BME280;5778;47.856;12.154;2022-10-12T08:32:47;97010.75;;;14.17;100.00
11444;BME280;5778;47.856;12.154;2022-10-12T08:35:14;97014.25;;;14.18;100.00
11444;BME280;5778;47.856;12.154;2022-10-12T08:37:46;97012.72;;;14.22;100.00
11444;BME280;5778;47.856;12.154;2022-10-12T08:40:15;97020.88;;;14.10;100.00
11444;BME280;5778;47.856;12.154;2022-10-12T08:42:49;97022.38;;;14.28;100.00
11444;BME280;5778;47.856;12.154;2022-10-12T08:45:34;97015.75;;;14.35;100.00
11444;BME280;5778;47.856;12.154;2022-10-12T08:48:08;97012.31;;;14.45;100.00
11444;BME280;5778;47.856;12.154;2022-10-12T08:51:03;97016.63;;;14.51;100.00
11444;BME280;5778;47.856;12.154;2022-10-12T08:53:38;97001.66;;;14.55;100.00
11444;BME280;5778;47.856;12.154;2022-10-12T08:56:26;97010.28;;;14.67;100.00
11444;BME280;5778;47.856;12.154;2022-10-12T08:58:53;97012.44;;;14.75;100.00
11444;BME280;5778;47.856;12.154;2022-10-12T09:01:26;97003.94;;;14.83;100.00
11444;BME280;5778;47.856;12.154;2022-10-12T09:04:09;97011.66;;;14.74;100.00
11444;BME280;5778;47.856;12.154;2022-10-12T09:10:05;97012.97;;;14.72;100.00
11444;BME280;5778;47.856;12.154;2022-10-12T09:12:45;97008.78;;;14.91;100.00
11444;BME280;5778;47.856;12.154;2022-10-12T09:15:17;97013.09;;;15.02;100.00
11444;BME280;5778;47.856;12.154;2022-10-12T09:18:13;97002.88;;;14.89;100.00
11444;BME280;5778;47.856;12.154;2022-10-12T09:20:51;97015.06;;;14.65;100.00
11444;BME280;5778;47.856;12.154;2022-10-12T09:23:22;97015.88;;;14.60;100.00
11444;BME280;5778;47.856;12.154;2022-10-12T09:26:14;97012.41;;;14.60;100.00
11444;BME280;5778;47.856;12.154;2022-10-12T09:28:43;97018.31;;;14.67;100.00
11444;BME280;5778;47.856;12.154;2022-10-12T09:31:28;97009.00;;;14.79;100.00
11444;BME280;5778;47.856;12.154;2022-10-12T09:34:03;97010.06;;;14.83;100.00
11444;BME280;5778;47.856;12.154;2022-10-12T09:39:53;97012.03;;;14.98;100.00
11444;BME280;5778;47.856;12.154;2022-10-12T09:42:21;97006.09;;;14.91;100.00
11444;BME280;5778;47.856;12.154;2022-10-12T09:44:49;97009.34;;;14.98;100.00
11444;BME280;5778;47.856;12.154;2022-10-12T09:47:27;97001.81;;;14.95;100.00
11444;BME280;5778;47.856;12.154;2022-10-12T09:49:58;97008.78;;;14.91;100.00
11444;BME280;5778;47.856;12.154;2022-10-12T09:52:28;97002.91;;;14.99;100.00
11444;BME280;5778;47.856;12.154;2022-10-12T09:54:58;96998.84;;;14.86;100.00
11444;BME280;5778;47.856;12.154;2022-10-12T09:57:43;97005.84;;;14.92;100.00
11444;BME280;5778;47.856;12.154;2022-10-12T10:00:23;97007.91;;;14.75;100.00
11444;BME280;5778;47.856;12.154;2022-10-12T10:02:52;97004.97;;;14.77;100.00
11444;BME280;5778;47.856;12.154;2022-10-12T10:05:25;97003.03;;;14.67;100.00
11444;BME280;5778;47.856;12.154;2022-10-12T10:08:16;96995.31;;;14.76;100.00
11444;BME280;5778;47.856;12.154;2022-10-12T10:10:47;96998.00;;;14.81;100.00
11444;BME280;5778;47.856;12.154;2022-10-12T10:13:16;96998.84;;;14.86;100.00
11444;BME280;5778;47.856;12.154;2022-10-12T10:15:47;96999.66;;;14.87;100.00
11444;BME280;5778;47.856;12.154;2022-10-12T10:18:21;96998.63;;;14.98;100.00
11444;BME280;5778;47.856;12.154;2022-10-12T10:20:55;96998.13;;;15.06;100.00
11444;BME280;5778;47.856;12.154;2022-10-12T10:23:24;97000.25;;;15.14;100.00
11444;BME280;5778;47.856;12.154;2022-10-12T10:26:06;97002.91;;;14.99;100.00
11444;BME280;5778;47.856;12.154;2022-10-12T10:28:36;96999.38;;;14.88;100.00
11444;BME280;5778;47.856;12.154;2022-10-12T10:31:05;97002.16;;;15.18;100.00
11444;BME280;5778;47.856;12.154;2022-10-12T10:33:33;97001.44;;;15.33;100.00
11444;BME280;5778;47.856;12.154;2022-10-12T10:36:17;97006.44;;;15.14;100.00
11444;BME280;5778;47.856;12.154;2022-10-12T10:38:52;97005.47;;;15.40;100.00
11444;BME280;5778;47.856;12.154;2022-10-12T10:41:24;96998.78;;;15.48;100.00
11444;BME280;5778;47.856;12.154;2022-10-12T10:43:53;96995.00;;;15.39;100.00
11444;BME280;5778;47.856;12.154;2022-10-12T10:46:31;96994.19;;;15.43;100.00
11444;BME280;5778;47.856;12.154;2022-10-12T10:48:59;96993.94;;;15.50;100.00
11444;BME280;5778;47.856;12.154;2022-10-12T10:51:50;96998.50;;;15.59;100.00
11444;BME280;5778;47.856;12.154;2022-10-12T10:54:25;96990.22;;;15.71;100.00
11444;BME280;5778;47.856;12.154;2022-10-12T10:57:05;96988.63;;;15.80;100.00
11444;BME280;5778;47.856;12.154;2022-10-12T10:59:39;96989.16;;;15.82;100.00
11444;BME280;5778;47.856;12.154;2022-10-12T11:02:20;96981.34;;;16.10;100.00
11444;BME280;5778;47.856;12.154;2022-10-12T11:04:52;96980.53;;;16.05;100.00
11444;BME280;5778;47.856;12.154;2022-10-12T11:07:30;96977.06;;;15.79;100.00
11444;BME280;5778;47.856;12.154;2022-10-12T11:10:04;96971.97;;;15.98;100.00
11444;BME280;5778;47.856;12.154;2022-10-12T11:12:37;96973.81;;;16.12;100.00
11444;BME280;5778;47.856;12.154;2022-10-12T11:15:12;96969.75;;;16.35;100.00
11444;BME280;5778;47.856;12.154;2022-10-12T11:17:49;96967.63;;;16.47;100.00
11444;BME280;5778;47.856;12.154;2022-10-12T11:20:38;96965.16;;;16.55;100.00
11444;BME280;5778;47.856;12.154;2022-10-12T11:23:16;96964.94;;;16.22;100.00
11444;BME280;5778;47.856;12.154;2022-10-12T11:26:00;96969.03;;;15.64;100.00
11444;BME280;5778;47.856;12.154;2022-10-12T11:28:31;96967.94;;;15.65;100.00
11444;BME280;5778;47.856;12.154;2022-10-12T11:31:00;96971.44;;;15.96;100.00
11444;BME280;5778;47.856;12.154;2022-10-12T11:33:33;96970.91;;;15.79;100.00
11444;BME280;5778;47.856;12.154;2022-10-12T11:36:29;96967.44;;;15.93;100.00
11444;BME280;5778;47.856;12.154;2022-10-12T11:39:00;96961.78;;;15.55;100.00
11444;BME280;5778;47.856;12.154;2022-10-12T11:41:34;96963.66;;;15.94;100.00
11444;BME280;5778;47.856;12.154;2022-10-12T11:44:14;96967.13;;;15.95;100.00
11444;BME280;5778;47.856;12.154;2022-10-12T11:46:48;96961.25;;;15.93;100.00
11444;BME280;5778;47.856;12.154;2022-10-12T11:49:25;96963.09;;;16.02;100.00
11444;BME280;5778;47.856;12.154;2022-10-12T11:52:07;96961.81;;;15.70;100.00
11444;BME280;5778;47.856;12.154;2022-10-12T11:54:41;96958.81;;;15.81;100.00
11444;BME280;5778;47.856;12.154;2022-10-12T11:57:15;96958.03;;;15.66;100.00
11444;BME280;5778;47.856;12.154;2022-10-12T11:59:46;96948.91;;;15.87;100.00
11444;BME280;5778;47.856;12.154;2022-10-12T12:02:18;96951.34;;;15.78;100.00
11444;BME280;5778;47.856;12.154;2022-10-12T12:04:48;96946.75;;;15.84;100.00
11444;BME280;5778;47.856;12.154;2022-10-12T12:10:50;96938.44;;;15.95;100.00
11444;BME280;5778;47.856;12.154;2022-10-12T12:13:22;96939.50;;;16.04;100.00
11444;BME280;5778;47.856;12.154;2022-10-12T12:16:24;96940.56;;;16.08;100.00
11444;BME280;5778;47.856;12.154;2022-10-12T12:19:15;96941.91;;;16.01;100.00
11444;BME280;5778;47.856;12.154;2022-10-12T12:25:28;96939.53;;;15.94;100.00
11444;BME280;5778;47.856;12.154;2022-10-12T12:28:05;96943.28;;;15.83;100.00
11444;BME280;5778;47.856;12.154;2022-10-12T12:30:54;96941.13;;;15.85;100.00
11444;BME280;5778;47.856;12.154;2022-10-12T12:33:28;96938.72;;;15.79;100.00
11444;BME280;5778;47.856;12.154;2022-10-12T12:35:59;96940.31;;;15.85;100.00
11444;BME280;5778;47.856;12.154;2022-10-12T12:38:31;96946.22;;;15.67;100.00
11444;BME280;5778;47.856;12.154;2022-10-12T12:41:02;96948.91;;;15.82;100.00
11444;BME280;5778;47.856;12.154;2022-10-12T12:43:52;96946.50;;;15.80;100.00
11444;BME280;5778;47.856;12.154;2022-10-12T12:49:42;96945.16;;;15.73;100.00
11444;BME280;5778;47.856;12.154;2022-10-12T12:52:13;96941.94;;;15.76;100.00
11444;BME280;5778;47.856;12.154;2022-10-12T12:54:55;96940.59;;;15.58;100.00
11444;BME280;5778;47.856;12.154;2022-10-12T12:57:57;96949.19;;;15.70;100.00
11444;BME280;5778;47.856;12.154;2022-10-12T13:00:32;96943.03;;;15.75;100.00
11444;BME280;5778;47.856;12.154;2022-10-12T13:03:22;96945.44;;;15.56;100.00
11444;BME280;5778;47.856;12.154;2022-10-12T13:06:27;96939.00;;;15.67;100.00
11444;BME280;5778;47.856;12.154;2022-10-12T13:12:14;96927.47;;;15.62;100.00
11444;BME280;5778;47.856;12.154;2022-10-12T13:14:57;96934.44;;;15.73;100.00
11444;BME280;5778;47.856;12.154;2022-10-12T13:23:15;96927.72;;;15.60;100.00
11444;BME280;5778;47.856;12.154;2022-10-12T13:25:56;96924.00;;;15.66;100.00
11444;BME280;5778;47.856;12.154;2022-10-12T13:28:27;96929.88;;;15.73;100.00
11444;BME280;5778;47.856;12.154;2022-10-12T13:30:58;96925.84;;;15.71;100.00
11444;BME280;5778;47.856;12.154;2022-10-12T13:33:30;96926.38;;;15.73;100.00
11444;BME280;5778;47.856;12.154;2022-10-12T13:36:19;96926.91;;;15.85;100.00
11444;BME280;5778;47.856;12.154;2022-10-12T13:38:53;96919.69;;;15.75;100.00
11444;BME280;5778;47.856;12.154;2022-10-12T13:41:22;96926.94;;;15.75;100.00
11444;BME280;5778;47.856;12.154;2022-10-12T13:43:51;96916.22;;;15.80;100.00
11444;BME280;5778;47.856;12.154;2022-10-12T13:49:33;96924.78;;;15.52;100.00
11444;BME280;5778;47.856;12.154;2022-10-12T13:52:35;96922.66;;;15.54;100.00
11444;BME280;5778;47.856;12.154;2022-10-12T13:55:14;96918.88;;;15.50;100.00
11444;BME280;5778;47.856;12.154;2022-10-12T13:57:43;96919.72;;;15.55;100.00
11444;BME280;5778;47.856;12.154;2022-10-12T14:00:18;96906.00;;;15.67;100.00
11444;BME280;5778;47.856;12.154;2022-10-12T14:02:53;96906.56;;;15.64;100.00
11444;BME280;5778;47.856;12.154;2022-10-12T14:05:24;96904.41;;;15.66;100.00
11444;BME280;5778;47.856;12.154;2022-10-12T14:08:13;96906.81;;;15.57;100.00
11444;BME280;5778;47.856;12.154;2022-10-12T14:10:41;96899.56;;;15.73;100.00
11444;BME280;5778;47.856;12.154;2022-10-12T14:13:12;96893.69;;;15.81;100.00
11444;BME280;5778;47.856;12.154;2022-10-12T14:15:41;96892.59;;;15.77;100.00
11444;BME280;5778;47.856;12.154;2022-10-12T14:18:36;96903.88;;;15.54;100.00
11444;BME280;5778;47.856;12.154;2022-10-12T14:21:24;96908.72;;;15.42;100.00
11444;BME280;5778;47.856;12.154;2022-10-12T14:23:54;96914.34;;;15.40;100.00